Terminal Aerodrome Forecast
Issued by NWS Sioux Falls, SD

Home | Current Version | Previous Version | Graphics & Text | Print | Product List | Glossary On
Versions: 1 2 3 4 5 6 7 8 9 10 11 12 13 14 15 16 17 18 19 20 21 22 23 24 25 26 27 28 29 30 31 32 33
000
FTUS43 KFSD 221203 RRA
TAFSUX
TAF
KSUX 221203Z 2212/2312 17004KT P6SM SKC
     FM221700 18008KT P6SM SKC
     FM230000 16007KT P6SM BKN200
     FM230600 16008KT P6SM BKN080=

USA.gov is the U.S. government's official web portal to all federal, state and local government web resources and services.